createdAt,value
2023-03-24T00:02:22.152Z,2.60
2023-03-24T00:04:58.425Z,2.30
2023-03-24T00:07:34.630Z,2.20
2023-03-24T00:10:11.008Z,2.27
2023-03-24T00:12:48.509Z,2.53
2023-03-24T00:15:21.925Z,2.53
2023-03-24T00:17:57.838Z,2.40
2023-03-24T00:20:32.933Z,2.60
2023-03-24T00:23:05.649Z,2.67
2023-03-24T00:25:40.110Z,2.70
2023-03-24T00:28:13.799Z,2.80
2023-03-24T00:30:53.068Z,2.83
2023-03-24T00:33:25.951Z,2.90
2023-03-24T00:36:00.374Z,3.50
2023-03-24T00:38:34.595Z,3.10
2023-03-24T00:41:10.618Z,3.20
2023-03-24T00:43:43.350Z,3.43
2023-03-24T00:46:29.200Z,3.70
2023-03-24T00:49:07.616Z,3.13
2023-03-24T00:51:42.526Z,3.43
2023-03-24T00:54:16.177Z,3.37
2023-03-24T00:56:49.683Z,4.00
2023-03-24T00:59:23.478Z,3.77
2023-03-24T01:01:59.031Z,3.77
2023-03-24T01:04:31.918Z,3.67
2023-03-24T01:07:05.659Z,4.00
2023-03-24T01:09:39.032Z,3.97
2023-03-24T01:12:12.084Z,4.30
2023-03-24T01:14:46.244Z,4.07
2023-03-24T01:17:22.200Z,4.00
2023-03-24T01:19:55.369Z,4.53
2023-03-24T01:22:30.209Z,4.50
2023-03-24T01:25:07.002Z,4.00
2023-03-24T01:27:39.916Z,4.63
2023-03-24T01:30:18.473Z,4.47
2023-03-24T01:32:52.276Z,4.70
2023-03-24T01:35:28.933Z,4.60
2023-03-24T01:38:06.582Z,4.40
2023-03-24T01:40:47.283Z,4.70
2023-03-24T01:43:24.103Z,4.50
2023-03-24T01:46:13.102Z,4.13
2023-03-24T01:48:46.797Z,3.93
2023-03-24T01:51:27.157Z,3.60
2023-03-24T01:54:11.685Z,3.80
2023-03-24T01:56:53.643Z,3.73
2023-03-24T01:59:29.123Z,4.07
2023-03-24T02:02:23.029Z,4.20
2023-03-24T02:05:04.216Z,3.50
2023-03-24T02:08:01.106Z,3.53
2023-03-24T02:10:35.398Z,3.87
2023-03-24T02:13:10.176Z,3.47
2023-03-24T02:16:03.391Z,3.30
2023-03-24T02:18:48.637Z,3.67
2023-03-24T02:21:41.634Z,3.13
2023-03-24T02:24:42.251Z,3.07
2023-03-24T02:27:20.773Z,2.90
2023-03-24T02:30:09.427Z,3.13
2023-03-24T02:32:51.056Z,2.87
2023-03-24T02:35:39.124Z,2.93
2023-03-24T02:38:11.837Z,2.43
2023-03-24T02:40:59.497Z,3.13
2023-03-24T02:44:06.580Z,2.70
2023-03-24T02:46:46.855Z,2.43
2023-03-24T02:49:47.949Z,2.60
2023-03-24T02:52:32.229Z,2.40
2023-03-24T02:55:21.149Z,2.37
2023-03-24T02:58:07.341Z,1.30
2023-03-24T03:01:06.975Z,2.00
2023-03-24T03:04:18.472Z,1.30
2023-03-24T03:06:58.729Z,1.50
2023-03-24T03:09:33.279Z,1.47
2023-03-24T03:12:09.177Z,1.80
2023-03-24T03:14:50.580Z,1.63
2023-03-24T03:17:35.127Z,1.33
2023-03-24T03:20:16.172Z,1.90
2023-03-24T03:23:10.789Z,1.40
2023-03-24T03:25:51.312Z,1.40
2023-03-24T03:28:29.696Z,1.43
2023-03-24T03:31:10.408Z,1.43
2023-03-24T03:33:51.064Z,1.80
2023-03-24T03:36:32.094Z,1.53
2023-03-24T03:39:18.887Z,1.50
2023-03-24T03:41:52.040Z,1.30
2023-03-24T03:44:25.439Z,1.60
2023-03-24T03:46:58.686Z,1.27
2023-03-24T03:49:43.492Z,1.47
2023-03-24T03:52:16.958Z,1.20
2023-03-24T03:54:51.301Z,1.50
2023-03-24T03:57:24.473Z,0.90
2023-03-24T04:00:19.755Z,1.07
2023-03-24T04:03:41.958Z,0.93
2023-03-24T04:06:22.242Z,0.90
2023-03-24T04:09:15.213Z,0.90
2023-03-24T04:12:06.428Z,1.07
2023-03-24T04:15:06.922Z,1.00
2023-03-24T04:18:27.121Z,0.80
2023-03-24T04:21:23.179Z,0.80
2023-03-24T04:24:03.474Z,0.90
2023-03-24T04:27:01.652Z,0.80
2023-03-24T04:29:42.434Z,0.70
2023-03-24T04:32:26.908Z,0.70
2023-03-24T04:35:06.985Z,0.80
2023-03-24T04:38:39.114Z,0.50
2023-03-24T04:41:37.666Z,0.60
2023-03-24T04:44:21.593Z,0.60
2023-03-24T04:47:22.896Z,0.50
2023-03-24T04:50:36.276Z,0.70
2023-03-24T04:53:13.055Z,0.60
2023-03-24T04:56:07.477Z,0.70
2023-03-24T04:58:58.994Z,0.90
2023-03-24T05:01:32.809Z,0.90
2023-03-24T05:04:26.190Z,0.80
2023-03-24T05:06:59.656Z,1.10
2023-03-24T05:09:33.754Z,0.70
2023-03-24T05:12:08.018Z,0.60
2023-03-24T05:14:59.323Z,0.90
2023-03-24T05:17:32.521Z,0.90
2023-03-24T05:20:12.034Z,0.60
2023-03-24T05:22:49.695Z,0.90
2023-03-24T05:25:22.447Z,0.93
2023-03-24T05:27:55.577Z,0.80
2023-03-24T05:30:31.278Z,0.90
2023-03-24T05:33:13.912Z,0.60
2023-03-24T05:35:46.777Z,0.60
2023-03-24T05:38:19.891Z,0.60
2023-03-24T05:40:58.079Z,0.90
2023-03-24T05:43:33.881Z,1.00
2023-03-24T05:46:18.957Z,0.80
2023-03-24T05:48:54.027Z,0.60
2023-03-24T05:51:27.524Z,0.60
2023-03-24T05:54:08.580Z,0.70
2023-03-24T05:56:44.672Z,0.67
2023-03-24T05:59:32.668Z,0.80
2023-03-24T06:02:23.344Z,0.63
2023-03-24T06:05:01.596Z,0.70
2023-03-24T06:07:34.521Z,0.73
2023-03-24T06:10:10.010Z,0.80
2023-03-24T06:12:49.145Z,0.80
2023-03-24T06:15:24.329Z,0.73
2023-03-24T06:17:57.850Z,0.60
2023-03-24T06:20:41.293Z,0.50
2023-03-24T06:23:17.590Z,0.50
2023-03-24T06:26:12.364Z,0.70
2023-03-24T06:28:54.832Z,0.60
2023-03-24T06:31:30.211Z,0.70
2023-03-24T06:34:04.667Z,0.70
2023-03-24T06:36:37.542Z,0.60
2023-03-24T06:39:11.916Z,0.70
2023-03-24T06:41:44.818Z,0.80
2023-03-24T06:44:18.144Z,0.90
2023-03-24T06:46:51.591Z,0.73
2023-03-24T06:49:24.558Z,2.23
2023-03-24T06:51:57.364Z,0.93
2023-03-24T06:54:32.234Z,0.70
2023-03-24T06:57:06.795Z,0.60
2023-03-24T06:59:58.072Z,0.63
2023-03-24T07:02:36.832Z,0.40
2023-03-24T07:05:12.570Z,0.57
2023-03-24T07:08:16.711Z,0.40
2023-03-24T07:10:46.069Z,0.47
2023-03-24T07:13:34.238Z,0.40
2023-03-24T07:16:10.979Z,0.50
2023-03-24T07:18:45.494Z,0.70
2023-03-24T07:21:18.383Z,0.50
2023-03-24T07:23:52.247Z,0.50
2023-03-24T07:26:27.702Z,0.40
2023-03-24T07:29:08.204Z,0.50
2023-03-24T07:32:00.783Z,0.60
2023-03-24T07:34:34.296Z,0.60
2023-03-24T07:37:07.363Z,0.50
2023-03-24T07:39:40.383Z,0.60
2023-03-24T07:42:13.344Z,0.60
2023-03-24T07:45:08.872Z,0.50
2023-03-24T07:47:45.042Z,0.60
2023-03-24T07:50:18.274Z,0.67
2023-03-24T07:52:51.409Z,0.70
2023-03-24T07:55:27.011Z,0.50
2023-03-24T07:58:03.984Z,0.50
2023-03-24T08:00:38.126Z,0.80
2023-03-24T08:03:27.843Z,0.40
2023-03-24T08:06:29.502Z,0.70
2023-03-24T08:09:04.685Z,0.70
2023-03-24T08:11:37.738Z,0.83
2023-03-24T08:14:20.081Z,1.10
2023-03-24T08:16:57.095Z,0.63
2023-03-24T08:19:29.871Z,1.00
2023-03-24T08:22:02.596Z,1.00
2023-03-24T08:24:36.300Z,0.80
2023-03-24T08:27:09.039Z,0.77
2023-03-24T08:29:41.871Z,1.17
2023-03-24T08:32:14.585Z,0.93
2023-03-24T08:34:47.330Z,1.00
2023-03-24T08:37:20.183Z,1.03
2023-03-24T08:39:53.151Z,0.80
2023-03-24T08:42:26.266Z,1.03
2023-03-24T08:44:59.054Z,0.90
2023-03-24T08:47:31.959Z,0.83
2023-03-24T08:50:06.868Z,0.97
2023-03-24T08:52:39.954Z,0.80
2023-03-24T08:55:12.690Z,0.80
2023-03-24T08:57:45.989Z,0.90
2023-03-24T09:00:20.709Z,0.90
2023-03-24T09:02:55.139Z,0.83
2023-03-24T09:05:43.546Z,0.83
2023-03-24T09:08:21.056Z,1.10
2023-03-24T09:10:53.957Z,1.13
2023-03-24T09:13:26.925Z,1.43
2023-03-24T09:16:02.639Z,1.00
2023-03-24T09:18:35.658Z,1.33
2023-03-24T09:21:08.521Z,1.20
2023-03-24T09:23:41.414Z,1.27
2023-03-24T09:26:14.080Z,1.13
2023-03-24T09:28:46.911Z,0.90
2023-03-24T09:31:19.665Z,0.90
2023-03-24T09:33:52.642Z,0.87
2023-03-24T09:36:25.446Z,0.90
2023-03-24T09:38:58.188Z,1.00
2023-03-24T09:41:34.233Z,0.80
2023-03-24T09:44:22.953Z,2.40
2023-03-24T09:47:21.681Z,0.70
2023-03-24T09:49:58.297Z,0.90
2023-03-24T09:52:36.645Z,1.27
2023-03-24T09:55:17.106Z,0.50
2023-03-24T09:57:51.707Z,0.80
2023-03-24T10:00:44.475Z,0.80
2023-03-24T10:03:23.422Z,0.90
2023-03-24T10:06:08.933Z,0.70
2023-03-24T10:08:50.018Z,0.83
2023-03-24T10:11:39.312Z,1.00
2023-03-24T10:14:17.841Z,0.93
2023-03-24T10:17:13.908Z,1.07
2023-03-24T10:20:15.821Z,1.00
2023-03-24T10:23:04.995Z,0.70
2023-03-24T10:26:02.747Z,1.17
2023-03-24T10:28:49.210Z,0.90
2023-03-24T10:31:29.520Z,0.70
2023-03-24T10:34:02.906Z,0.70
2023-03-24T10:36:35.856Z,1.00
2023-03-24T10:39:20.908Z,0.90
2023-03-24T10:41:59.416Z,0.83
2023-03-24T10:44:33.011Z,0.90
2023-03-24T10:47:08.437Z,0.97
2023-03-24T10:52:55.189Z,0.83
2023-03-24T10:55:31.397Z,0.80
2023-03-24T10:58:28.072Z,0.90
2023-03-24T11:01:02.095Z,0.67
2023-03-24T11:03:37.262Z,0.70
2023-03-24T11:06:18.086Z,1.00
2023-03-24T11:09:21.164Z,1.10
2023-03-24T11:11:53.901Z,1.00
2023-03-24T11:14:28.089Z,0.75
2023-03-24T11:17:12.646Z,0.80
2023-03-24T11:19:57.427Z,0.70
2023-03-24T11:22:30.462Z,0.70
2023-03-24T11:25:03.348Z,0.90
2023-03-24T11:27:43.073Z,0.77
2023-03-24T11:30:16.022Z,0.70
2023-03-24T11:32:50.269Z,1.00
2023-03-24T11:35:29.402Z,0.60
2023-03-24T11:38:08.460Z,0.70
2023-03-24T11:40:53.415Z,0.98
2023-03-24T11:43:28.047Z,0.93
2023-03-24T11:46:17.063Z,0.88
2023-03-24T11:48:58.796Z,0.88
2023-03-24T11:51:45.591Z,0.75
2023-03-24T11:54:20.278Z,0.75
2023-03-24T11:56:57.524Z,0.70
2023-03-24T11:59:46.551Z,0.90
2023-03-24T12:02:52.356Z,0.70
2023-03-24T12:05:41.903Z,0.80
2023-03-24T12:08:42.792Z,2.80
2023-03-24T12:11:41.308Z,1.00
2023-03-24T12:14:42.491Z,0.80
2023-03-24T12:17:18.264Z,0.73
2023-03-24T12:20:22.533Z,0.60
2023-03-24T12:23:19.618Z,1.00
2023-03-24T12:26:01.408Z,0.80
2023-03-24T12:28:51.400Z,0.70
2023-03-24T12:31:47.335Z,0.83
2023-03-24T12:34:40.307Z,0.87
2023-03-24T12:37:52.475Z,0.80
2023-03-24T12:40:49.434Z,0.80
2023-03-24T12:43:45.347Z,0.73
2023-03-24T12:46:54.353Z,0.90
2023-03-24T12:49:36.551Z,0.70
2023-03-24T12:53:04.746Z,0.70
2023-03-24T12:55:49.064Z,1.10
2023-03-24T12:58:43.096Z,1.00
2023-03-24T13:01:29.531Z,0.93
2023-03-24T13:04:17.046Z,0.70
2023-03-24T13:06:59.779Z,0.70
2023-03-24T13:10:13.581Z,1.20
2023-03-24T13:13:04.314Z,0.63
2023-03-24T13:15:56.033Z,0.93
2023-03-24T13:18:36.340Z,0.70
2023-03-24T13:21:16.868Z,0.90
2023-03-24T13:23:56.429Z,0.60
2023-03-24T13:26:40.946Z,0.70
2023-03-24T13:29:49.019Z,0.70
2023-03-24T13:32:23.100Z,0.83
2023-03-24T13:35:03.897Z,1.17
2023-03-24T13:37:48.742Z,0.93
2023-03-24T13:40:25.314Z,0.90
2023-03-24T13:43:11.225Z,0.83
2023-03-24T13:45:51.612Z,0.83
2023-03-24T13:48:42.114Z,0.90
2023-03-24T13:51:25.788Z,0.90
2023-03-24T13:54:15.781Z,0.73
2023-03-24T13:57:05.579Z,1.10
2023-03-24T14:00:08.474Z,0.60
2023-03-24T14:02:42.884Z,0.60
2023-03-24T14:05:41.233Z,0.60
2023-03-24T14:08:16.676Z,0.80
2023-03-24T14:10:51.621Z,0.83
2023-03-24T14:13:34.692Z,0.63
2023-03-24T14:16:33.822Z,0.60
2023-03-24T14:19:20.433Z,0.80
2023-03-24T14:21:59.156Z,0.60
2023-03-24T14:24:32.957Z,0.70
2023-03-24T14:27:42.507Z,0.70
2023-03-24T14:30:25.589Z,0.70
2023-03-24T14:33:00.366Z,1.00
2023-03-24T14:35:34.672Z,0.80
2023-03-24T14:38:19.909Z,0.60
2023-03-24T14:40:58.101Z,0.90
2023-03-24T14:43:55.835Z,1.00
2023-03-24T14:46:44.626Z,0.70
2023-03-24T14:49:30.161Z,0.80
2023-03-24T14:52:24.835Z,0.80
2023-03-24T14:55:06.354Z,1.00
2023-03-24T14:57:44.320Z,0.70
2023-03-24T15:00:40.391Z,1.13
2023-03-24T15:03:37.945Z,0.80
2023-03-24T15:06:17.758Z,1.10
2023-03-24T15:09:07.566Z,0.70
2023-03-24T15:11:41.790Z,0.87
2023-03-24T15:14:25.991Z,0.60
2023-03-24T15:17:18.257Z,0.60
2023-03-24T15:19:53.663Z,0.60
2023-03-24T15:22:26.408Z,0.77
2023-03-24T15:24:59.165Z,0.77
2023-03-24T15:27:34.107Z,3.20
2023-03-24T15:30:14.676Z,2.90
2023-03-24T15:32:49.194Z,0.90
2023-03-24T15:35:24.215Z,1.00
2023-03-24T15:37:57.313Z,0.83
2023-03-24T15:40:35.206Z,0.60
2023-03-24T15:43:19.319Z,1.00
2023-03-24T15:46:04.677Z,0.80
2023-03-24T15:48:46.941Z,0.60
2023-03-24T15:51:55.076Z,0.67
2023-03-24T15:54:38.662Z,0.90
2023-03-24T15:57:18.227Z,1.20
2023-03-24T15:59:58.830Z,0.67
2023-03-24T16:02:42.456Z,0.70
2023-03-24T16:05:31.289Z,0.80
2023-03-24T16:08:41.776Z,0.70
2023-03-24T16:11:14.698Z,0.60
2023-03-24T16:13:47.381Z,1.10
2023-03-24T16:16:38.242Z,0.80
2023-03-24T16:19:11.137Z,1.07
2023-03-24T16:21:43.994Z,0.90
2023-03-24T16:24:17.753Z,1.10
2023-03-24T16:26:50.559Z,0.67
2023-03-24T16:29:24.016Z,1.00
2023-03-24T16:31:57.261Z,0.90
2023-03-24T16:34:30.087Z,1.00
2023-03-24T16:37:04.247Z,0.93
2023-03-24T16:39:38.374Z,1.03
2023-03-24T16:42:11.155Z,0.90
2023-03-24T16:44:45.455Z,1.40
2023-03-24T16:47:24.266Z,0.90
2023-03-24T16:49:59.663Z,0.70
2023-03-24T16:52:32.663Z,0.50
2023-03-24T16:55:06.227Z,0.70
2023-03-24T16:57:39.019Z,1.00
2023-03-24T17:00:12.421Z,0.60
2023-03-24T17:02:48.164Z,0.40
2023-03-24T17:05:30.314Z,0.50
2023-03-24T17:08:03.126Z,0.60
2023-03-24T17:10:36.821Z,0.60
2023-03-24T17:13:31.578Z,0.40
2023-03-24T17:16:05.921Z,0.70
2023-03-24T17:18:39.525Z,0.50
2023-03-24T17:21:18.583Z,0.50
2023-03-24T17:23:54.844Z,0.40
2023-03-24T17:26:28.424Z,0.47
2023-03-24T17:29:01.920Z,0.40
2023-03-24T17:31:34.693Z,0.60
2023-03-24T17:34:21.449Z,0.90
2023-03-24T17:36:55.467Z,0.67
2023-03-24T17:39:28.211Z,0.40
2023-03-24T17:42:01.464Z,0.50
2023-03-24T17:44:34.188Z,0.57
2023-03-24T17:47:07.410Z,0.43
2023-03-24T17:49:40.146Z,0.57
2023-03-24T17:52:13.088Z,0.70
2023-03-24T17:54:46.020Z,0.70
2023-03-24T17:57:18.877Z,0.50
2023-03-24T17:59:52.861Z,1.03
2023-03-24T18:02:26.603Z,0.90
2023-03-24T18:04:59.546Z,0.70
2023-03-24T18:07:32.592Z,0.73
2023-03-24T18:10:06.092Z,0.70
2023-03-24T18:12:38.868Z,0.90
2023-03-24T18:15:11.764Z,0.87
2023-03-24T18:17:44.577Z,0.50
2023-03-24T18:20:17.503Z,0.83
2023-03-24T18:22:50.586Z,0.73
2023-03-24T18:25:23.474Z,0.80
2023-03-24T18:27:56.251Z,0.60
2023-03-24T18:30:30.685Z,0.70
2023-03-24T18:33:03.516Z,5.60
2023-03-24T18:35:36.391Z,3.17
2023-03-24T18:38:09.093Z,0.50
2023-03-24T18:40:41.777Z,0.87
2023-03-24T18:43:14.449Z,0.70
2023-03-24T18:45:47.263Z,0.63
2023-03-24T18:48:20.499Z,0.90
2023-03-24T18:50:53.276Z,0.87
2023-03-24T18:53:25.922Z,0.70
2023-03-24T18:55:58.629Z,0.63
2023-03-24T18:58:31.860Z,0.50
2023-03-24T19:01:09.069Z,0.77
2023-03-24T19:03:43.924Z,1.53
2023-03-24T19:06:17.011Z,0.87
2023-03-24T19:08:51.613Z,0.60
2023-03-24T19:11:25.293Z,0.53
2023-03-24T19:13:59.167Z,0.70
2023-03-24T19:16:32.567Z,0.80
2023-03-24T19:19:05.288Z,0.73
2023-03-24T19:21:40.170Z,0.67
2023-03-24T19:24:13.760Z,0.60
2023-03-24T19:26:46.812Z,0.57
2023-03-24T19:29:19.621Z,0.60
2023-03-24T19:31:52.380Z,0.47
2023-03-24T19:34:25.541Z,0.57
2023-03-24T19:36:58.255Z,0.57
2023-03-24T19:39:31.007Z,0.60
2023-03-24T19:42:07.556Z,0.50
2023-03-24T19:44:40.210Z,0.50
2023-03-24T19:47:12.884Z,0.60
2023-03-24T19:49:45.525Z,0.60
2023-03-24T19:52:18.191Z,0.57
2023-03-24T19:54:52.349Z,0.70
2023-03-24T19:57:25.197Z,0.70
2023-03-24T19:59:57.844Z,0.70
2023-03-24T20:02:30.652Z,0.70
2023-03-24T20:05:03.640Z,0.73
2023-03-24T20:07:36.565Z,0.80
2023-03-24T20:10:09.794Z,0.73
2023-03-24T20:12:42.476Z,0.60
2023-03-24T20:15:15.542Z,0.70
2023-03-24T20:17:48.891Z,0.50
2023-03-24T20:20:22.103Z,0.80
2023-03-24T20:22:54.858Z,0.80
2023-03-24T20:25:28.113Z,0.60
2023-03-24T20:28:01.411Z,0.40
2023-03-24T20:30:34.098Z,0.50
2023-03-24T20:33:06.969Z,0.47
2023-03-24T20:35:39.748Z,0.50
2023-03-24T20:38:12.508Z,0.50
2023-03-24T20:40:45.426Z,0.60
2023-03-24T20:43:18.612Z,0.50
2023-03-24T20:45:57.613Z,0.60
2023-03-24T20:48:30.660Z,0.70
2023-03-24T20:51:03.871Z,0.60
2023-03-24T20:53:37.328Z,0.50
2023-03-24T20:56:14.907Z,0.67
2023-03-24T20:58:48.000Z,0.50
2023-03-24T21:01:22.571Z,0.40
2023-03-24T21:04:02.125Z,0.70
2023-03-24T21:06:41.119Z,0.60
2023-03-24T21:09:13.776Z,0.70
2023-03-24T21:11:46.434Z,0.50
2023-03-24T21:14:19.690Z,0.30
2023-03-24T21:16:52.650Z,0.30
2023-03-24T21:19:25.479Z,0.50
2023-03-24T21:21:58.245Z,0.50
2023-03-24T21:24:31.239Z,0.40
2023-03-24T21:27:04.053Z,0.30
2023-03-24T21:29:36.799Z,0.50
2023-03-24T21:32:10.487Z,0.40
2023-03-24T21:34:43.172Z,0.50
2023-03-24T21:37:19.514Z,0.50
2023-03-24T21:39:52.249Z,0.30
2023-03-24T21:42:24.961Z,0.40
2023-03-24T21:44:57.651Z,0.50
2023-03-24T21:47:30.334Z,0.40
2023-03-24T21:50:04.167Z,0.40
2023-03-24T21:52:39.127Z,1.00
2023-03-24T21:55:14.594Z,0.50
2023-03-24T21:57:49.642Z,0.40
2023-03-24T22:00:29.690Z,0.40
2023-03-24T22:03:03.595Z,0.40
2023-03-24T22:05:39.028Z,0.43
2023-03-24T22:08:12.092Z,0.50
2023-03-24T22:10:45.932Z,0.50
2023-03-24T22:13:18.594Z,0.40
2023-03-24T22:15:59.746Z,0.50
2023-03-24T22:18:34.528Z,0.70
2023-03-24T22:21:09.089Z,0.40
2023-03-24T22:23:42.531Z,0.50
2023-03-24T22:26:16.965Z,0.60
2023-03-24T22:28:50.547Z,0.50
2023-03-24T22:31:24.203Z,0.60
2023-03-24T22:33:57.001Z,0.40
2023-03-24T22:36:29.766Z,0.57
2023-03-24T22:39:03.419Z,0.50
2023-03-24T22:41:36.707Z,0.90
2023-03-24T22:44:10.200Z,0.83
2023-03-24T22:46:42.946Z,0.40
2023-03-24T22:49:15.783Z,0.60
2023-03-24T22:51:48.501Z,0.53
2023-03-24T22:54:21.360Z,2.67
2023-03-24T22:56:54.117Z,1.03
2023-03-24T22:59:26.893Z,0.47
2023-03-24T23:02:09.289Z,0.57
2023-03-24T23:04:44.962Z,0.60
2023-03-24T23:07:19.186Z,0.73
2023-03-24T23:09:53.047Z,0.50
2023-03-24T23:12:26.473Z,0.50
2023-03-24T23:15:00.138Z,0.60
2023-03-24T23:17:33.089Z,0.70
2023-03-24T23:20:07.327Z,1.20
2023-03-24T23:22:40.942Z,0.40
2023-03-24T23:25:14.404Z,0.60
2023-03-24T23:27:47.184Z,0.50
2023-03-24T23:30:21.095Z,0.50
2023-03-24T23:32:54.059Z,0.60
2023-03-24T23:35:27.001Z,0.57
2023-03-24T23:37:59.689Z,0.70
2023-03-24T23:40:32.383Z,0.70
2023-03-24T23:43:05.444Z,0.90
2023-03-24T23:45:38.462Z,0.50
2023-03-24T23:48:12.260Z,0.70
2023-03-24T23:50:49.213Z,0.63
2023-03-24T23:53:21.954Z,0.67
2023-03-24T23:55:56.995Z,0.70
2023-03-24T23:58:31.863Z,0.60
